• Join FlightAware (Why Join?)
  • Login
  • US Flag 
07:28AM EDT


 

Airport Tracker/Info


-or-


 

Live Flight TrackerFlight Track Log ✈ CTL13 ✈ 17-Apr-2013 ✈ KMDW - KGRR

Flight Track Log - Related Links

Times and Time Zones

All times are in EDT time to prevent confusion due to time zone crossing. See the CTL13 flight status page for this flight to view local times or setup timezone preferences in your user account.

Time Position Orientation Groundspeed Altitude Reporting Facility
EDT Latitude Longitude Course Direction KTS MPH feet Rate Location/Type
11:54PM 41.7667 -87.7500 90° East 122 140 1,700  Level Chicago TRACON
11:55PM 41.7667 -87.7000 90° East 117 135 2,800 780 Climbing Chicago TRACON
11:56PM 41.7667 -87.6500 90° East 147 169 3,300 600 Climbing Chicago TRACON
11:57PM 41.7758 -87.6072 74° East 135 155 4,000 720 Climbing Chicago Center
11:58PM 41.7781 -87.5506 87° East 145 167 4,700 540 Climbing Chicago Center
11:59PM 41.7803 -87.4931 87° East 151 174 5,100 180 Climbing Chicago Center
12:00AM 41.7786 -87.4317 92° East 157 181 5,100 -60 Level Chicago Center
12:01AM 41.7797 -87.3689 89° East 163 188 5,000 -120 Descending Chicago Center
12:02AM 41.7794 -87.3097 90° East 163 188 4,900 -60 Descending Chicago Center
12:03AM 41.7822 -87.2519 86° East 159 183 4,900  Level Chicago Center
12:04AM 41.7956 -87.1956 72° East 159 183 5,000  Climbing Chicago Center
12:05AM 41.8164 -87.1442 61° Northeast 158 182 5,000  Level Chicago Center
12:06AM 41.8392 -87.0769 66° East 164 189 5,000  Level Chicago Center
12:07AM 41.8600 -87.0217 63° Northeast 167 192 5,100  Climbing Chicago Center
12:08AM 41.8897 -86.9739 50° Northeast 166 191 5,100  Level Chicago Center
12:09AM 41.9211 -86.9275 48° Northeast 169 194 5,100  Level Chicago Center
12:10AM 41.9525 -86.8819 47° Northeast 168 193 5,100  Level Chicago Center
12:11AM 41.9842 -86.8342 48° Northeast 170 196 5,100  Level Chicago Center
12:12AM 42.0156 -86.7881 47° Northeast 170 196 5,100  Level Chicago Center
12:13AM 42.0475 -86.7375 50° Northeast 169 194 5,100  Level Chicago Center
12:14AM 42.0786 -86.6892 49° Northeast 170 196 5,100  Level Chicago Center
12:15AM 42.1106 -86.6433 47° Northeast 169 194 5,100  Level Chicago Center
12:16AM 42.1419 -86.5972 47° Northeast 173 199 5,100  Level Chicago Center
12:17AM 42.1758 -86.5442 49° Northeast 176 203 5,100  Level Chicago Center
12:18AM 42.2094 -86.4975 46° Northeast 175 201 5,100 -60 Level Chicago Center
12:19AM 42.2436 -86.4489 46° Northeast 177 204 5,000 -60 Descending Chicago Center
12:20AM 42.2789 -86.3994 46° Northeast 181 208 5,000 -60 Level Chicago Center
12:21AM 42.3150 -86.3406 50° Northeast 180 207 4,900 -60 Descending Chicago Center
12:22AM 42.3469 -86.2928 48° Northeast 175 201 4,900  Level Chicago Center
12:23AM 42.3836 -86.2531 39° Northeast 171 197 5,000  Climbing Chicago Center
12:24AM 42.4233 -86.2169 34° Northeast 171 197 5,000  Level Chicago Center
12:25AM 42.4619 -86.1761 38° Northeast 175 201 5,000  Level Chicago Center
12:26AM 42.5025 -86.1375 35° Northeast 178 205 5,000  Level Chicago Center
12:27AM 42.5419 -86.0986 36° Northeast 177 204 5,000 -180 Level Chicago Center
12:28AM 42.5825 -86.0611 34° Northeast 177 204 4,700 -900 Descending Chicago Center
12:29AM 42.6219 -86.0242 35° Northeast 175 201 3,300 -900 Descending Chicago Center
12:30AM 42.6614 -85.9881 34° Northeast 173 199 2,900 -240 Descending Chicago Center
12:31AM 42.7003 -85.9519 34° Northeast 170 196 2,900  Level Chicago Center
12:32AM 42.7386 -85.9147 35° Northeast 170 196 3,000  Climbing Chicago Center
12:33AM 42.7722 -85.8719 43° Northeast 168 193 3,000  Level Chicago Center
12:34AM 42.8028 -85.8281 46° Northeast 165 190 3,000  Level Chicago Center
12:35AM 42.8403 -85.7742 46° Northeast 164 189 3,100 -300 Climbing Chicago Center
12:36AM 42.8556 -85.7169 70° East 166 191 2,500 -300 Descending Chicago Center
12:37AM 42.8619 -85.6633 81° East 155 178 2,500 -300 Level Chicago Center
12:38AM 42.8678 -85.6158 80° East 142 163 2,000 -300 Descending Chicago Center
12:39AM 42.8733 -85.5681 81° East 139 160 1,900 -120 Descending Chicago Center